createdAt,value
2018-04-17T00:01:54.800Z,14.45
2018-04-17T00:04:22.252Z,13.82
2018-04-17T00:06:49.736Z,14.50
2018-04-17T00:09:17.209Z,13.85
2018-04-17T00:11:44.677Z,15.20
2018-04-17T00:14:12.140Z,13.88
2018-04-17T00:16:40.386Z,15.18
2018-04-17T00:19:07.854Z,13.98
2018-04-17T00:21:35.329Z,16.00
2018-04-17T00:24:02.792Z,14.20
2018-04-17T00:26:30.274Z,14.52
2018-04-17T00:28:57.744Z,15.32
2018-04-17T00:31:25.211Z,13.62
2018-04-17T00:33:52.665Z,16.52
2018-04-17T00:36:20.132Z,13.40
2018-04-17T00:38:47.592Z,14.87
2018-04-17T00:41:15.071Z,17.87
2018-04-17T00:43:42.548Z,13.73
2018-04-17T00:46:10.820Z,14.48
2018-04-17T00:48:39.068Z,14.63
2018-04-17T00:51:06.554Z,14.87
2018-04-17T00:53:55.515Z,13.27
2018-04-17T00:56:23.745Z,14.50
2018-04-17T00:58:51.231Z,13.27
2018-04-17T01:01:18.717Z,13.32
2018-04-17T01:03:46.184Z,14.35
2018-04-17T01:06:13.694Z,13.27
2018-04-17T01:08:41.201Z,14.43
2018-04-17T01:11:08.656Z,14.07
2018-04-17T01:13:36.119Z,14.60
2018-04-17T01:16:03.626Z,14.63
2018-04-17T01:18:31.116Z,16.10
2018-04-17T01:20:58.589Z,13.65
2018-04-17T01:23:26.073Z,15.00
2018-04-17T01:25:53.547Z,15.32
2018-04-17T01:28:21.028Z,13.62
2018-04-17T01:30:49.256Z,14.20
2018-04-17T01:33:16.765Z,14.82
2018-04-17T01:35:44.234Z,15.50
2018-04-17T01:38:11.688Z,15.05
2018-04-17T01:40:39.179Z,14.30
2018-04-17T01:43:06.638Z,14.87
2018-04-17T01:45:34.126Z,16.77
2018-04-17T01:48:02.386Z,16.25
2018-04-17T01:50:29.858Z,15.63
2018-04-17T01:52:57.337Z,15.50
2018-04-17T01:55:25.584Z,15.50
2018-04-17T01:57:53.038Z,13.35
2018-04-17T02:00:20.496Z,15.07
2018-04-17T02:02:48.038Z,15.48
2018-04-17T02:05:15.490Z,15.07
2018-04-17T02:07:43.029Z,14.93
2018-04-17T02:10:10.494Z,14.75
2018-04-17T02:12:37.973Z,13.93
2018-04-17T02:15:05.441Z,15.75
2018-04-17T02:17:32.921Z,15.82
2018-04-17T02:20:00.393Z,14.05
2018-04-17T02:22:28.612Z,14.70
2018-04-17T02:24:56.113Z,16.30
2018-04-17T02:27:24.345Z,15.40
2018-04-17T02:29:51.818Z,14.15
2018-04-17T02:32:19.337Z,14.38
2018-04-17T02:34:46.807Z,15.18
2018-04-17T02:37:14.265Z,14.50
2018-04-17T02:39:41.730Z,13.60
2018-04-17T02:42:09.200Z,14.05
2018-04-17T02:44:36.686Z,13.70
2018-04-17T02:47:04.164Z,14.35
2018-04-17T02:49:31.653Z,14.63
2018-04-17T02:51:59.903Z,13.15
2018-04-17T02:54:27.369Z,13.23
2018-04-17T02:56:54.846Z,14.10
2018-04-17T02:59:22.308Z,13.20
2018-04-17T03:01:49.773Z,13.77
2018-04-17T03:04:17.230Z,14.23
2018-04-17T03:06:44.721Z,14.00
2018-04-17T03:09:12.965Z,14.18
2018-04-17T03:11:40.448Z,13.65
2018-04-17T03:14:07.904Z,14.40
2018-04-17T03:16:35.381Z,13.48
2018-04-17T03:19:03.609Z,15.50
2018-04-17T03:21:31.098Z,13.35
2018-04-17T03:23:58.548Z,13.18
2018-04-17T03:26:26.046Z,14.68
2018-04-17T03:28:53.507Z,12.60
2018-04-17T03:31:20.968Z,13.85
2018-04-17T03:33:48.430Z,12.07
2018-04-17T03:36:15.905Z,12.85
2018-04-17T03:38:43.392Z,15.20
2018-04-17T03:41:10.870Z,12.80
2018-04-17T03:43:39.101Z,13.52
2018-04-17T03:46:06.649Z,11.48
2018-04-17T03:48:34.131Z,13.48
2018-04-17T03:51:01.583Z,13.50
2018-04-17T03:53:29.059Z,12.50
2018-04-17T03:55:56.568Z,12.05
2018-04-17T03:58:24.030Z,14.02
2018-04-17T04:00:51.496Z,13.70
2018-04-17T04:03:18.979Z,11.75
2018-04-17T04:05:46.464Z,14.20
2018-04-17T04:08:14.695Z,12.40
2018-04-17T04:10:42.157Z,11.90
2018-04-17T04:13:09.622Z,13.80
2018-04-17T04:15:37.076Z,13.80
2018-04-17T04:18:16.349Z,12.23
2018-04-17T04:20:55.580Z,12.93
2018-04-17T04:23:34.820Z,13.27
2018-04-17T04:29:09.858Z,15.02
2018-04-17T04:31:38.109Z,14.10
2018-04-17T04:34:05.588Z,16.37
2018-04-17T04:36:33.842Z,15.98
2018-04-17T04:39:01.313Z,15.40
2018-04-17T04:41:29.547Z,15.95
2018-04-17T04:43:57.023Z,17.20
2018-04-17T04:46:24.511Z,20.05
2018-04-17T04:48:51.986Z,18.95
2018-04-17T04:51:19.505Z,19.48
2018-04-17T04:53:46.985Z,17.92
2018-04-17T04:56:15.212Z,20.05
2018-04-17T04:58:42.723Z,18.20
2018-04-17T05:01:10.193Z,17.10
2018-04-17T05:03:37.665Z,18.65
2018-04-17T05:06:05.149Z,16.87
2018-04-17T05:08:32.628Z,16.65
2018-04-17T05:11:00.086Z,18.60
2018-04-17T05:13:27.562Z,16.62
2018-04-17T05:15:55.785Z,16.95
2018-04-17T05:18:23.320Z,16.65
2018-04-17T05:20:50.796Z,16.20
2018-04-17T05:23:18.255Z,16.65
2018-04-17T05:25:45.753Z,17.83
2018-04-17T05:28:14.658Z,17.40
2018-04-17T05:30:42.399Z,18.92
2018-04-17T05:33:10.659Z,17.42
2018-04-17T05:35:38.144Z,17.67
2018-04-17T05:38:06.373Z,17.85
2018-04-17T05:40:33.860Z,20.27
2018-04-17T05:43:01.305Z,18.12
2018-04-17T05:45:28.778Z,19.48
2018-04-17T05:47:56.237Z,20.30
2018-04-17T05:50:23.699Z,19.15
2018-04-17T05:52:51.157Z,19.77
2018-04-17T05:55:18.622Z,20.88
2018-04-17T05:57:46.835Z,20.73
2018-04-17T06:00:14.311Z,21.23
2018-04-17T06:02:41.776Z,20.52
2018-04-17T06:05:09.246Z,22.67
2018-04-17T06:07:36.716Z,20.37
2018-04-17T06:10:04.204Z,21.05
2018-04-17T06:12:31.736Z,18.50
2018-04-17T06:14:59.260Z,22.70
2018-04-17T06:17:26.765Z,19.85
2018-04-17T06:19:54.245Z,19.65
2018-04-17T06:22:21.779Z,21.10
2018-04-17T06:24:49.296Z,21.90
2018-04-17T06:27:16.781Z,19.80
2018-04-17T06:29:44.257Z,21.60
2018-04-17T06:32:11.810Z,22.17
2018-04-17T06:34:40.057Z,19.40
2018-04-17T06:37:07.538Z,18.73
2018-04-17T06:39:34.995Z,18.20
2018-04-17T06:42:03.238Z,19.27
2018-04-17T06:44:30.690Z,18.65
2018-04-17T06:46:58.176Z,18.48
2018-04-17T06:49:25.645Z,19.00
2018-04-17T06:51:53.128Z,17.40
2018-04-17T06:54:20.619Z,18.15
2018-04-17T06:56:48.110Z,18.20
2018-04-17T06:59:16.367Z,17.75
2018-04-17T07:01:43.812Z,16.27
2018-04-17T07:04:11.283Z,13.95
2018-04-17T07:06:38.745Z,16.60
2018-04-17T07:09:06.229Z,14.55
2018-04-17T07:11:33.711Z,14.10
2018-04-17T07:14:01.213Z,13.60
2018-04-17T07:16:28.697Z,13.40
2018-04-17T07:18:56.946Z,12.25
2018-04-17T07:21:24.409Z,13.23
2018-04-17T07:23:51.991Z,9.98
2018-04-17T07:26:19.470Z,10.10
2018-04-17T07:28:46.940Z,12.32
2018-04-17T07:31:14.442Z,9.27
2018-04-17T07:33:41.904Z,8.02
2018-04-17T07:36:10.180Z,9.43
2018-04-17T07:38:37.642Z,9.15
2018-04-17T07:41:05.350Z,9.10
2018-04-17T07:43:32.826Z,7.47
2018-04-17T07:46:00.306Z,7.70
2018-04-17T07:48:39.580Z,7.15
2018-04-17T07:51:07.050Z,7.45
2018-04-17T07:53:34.565Z,6.70
2018-04-17T07:56:02.848Z,7.07
2018-04-17T07:58:31.096Z,6.43
2018-04-17T08:00:58.569Z,6.15
2018-04-17T08:03:26.034Z,6.50
2018-04-17T08:05:54.420Z,5.53
2018-04-17T08:08:21.924Z,5.10
2018-04-17T08:10:49.375Z,6.55
2018-04-17T08:13:16.867Z,5.20
2018-04-17T08:15:44.393Z,4.62
2018-04-17T08:18:11.875Z,4.55
2018-04-17T08:20:39.362Z,4.97
2018-04-17T08:23:06.870Z,4.60
2018-04-17T08:25:34.343Z,5.07
2018-04-17T08:28:01.825Z,6.05
2018-04-17T08:30:30.073Z,4.75
2018-04-17T08:32:57.561Z,5.03
2018-04-17T08:35:25.040Z,4.75
2018-04-17T08:37:52.529Z,5.30
2018-04-17T08:40:20.017Z,3.80
2018-04-17T08:42:48.101Z,4.00
2018-04-17T08:45:16.506Z,4.03
2018-04-17T08:47:44.005Z,4.68
2018-04-17T08:50:11.617Z,4.70
2018-04-17T08:52:39.925Z,4.97
2018-04-17T08:55:07.992Z,4.55
2018-04-17T08:57:35.601Z,3.62
2018-04-17T09:00:03.071Z,4.35
2018-04-17T09:02:30.670Z,4.47
2018-04-17T09:04:59.457Z,4.30
2018-04-17T09:07:26.944Z,5.65
2018-04-17T09:09:54.417Z,5.37
2018-04-17T09:12:22.693Z,4.78
2018-04-17T09:14:50.148Z,4.28
2018-04-17T09:17:17.666Z,4.10
2018-04-17T09:19:45.153Z,6.62
2018-04-17T09:22:12.633Z,6.43
2018-04-17T09:24:41.241Z,4.85
2018-04-17T09:27:08.749Z,5.07
2018-04-17T09:29:36.221Z,5.68
2018-04-17T09:32:03.679Z,5.12
2018-04-17T09:34:31.159Z,6.37
2018-04-17T09:36:59.461Z,7.70
2018-04-17T09:39:27.055Z,6.90
2018-04-17T09:41:54.586Z,6.53
2018-04-17T09:44:22.255Z,7.50
2018-04-17T09:46:49.727Z,6.45
2018-04-17T09:49:17.208Z,6.12
2018-04-17T09:51:44.660Z,6.43
2018-04-17T09:54:12.141Z,8.15
2018-04-17T09:56:39.624Z,6.35
2018-04-17T09:59:07.097Z,6.35
2018-04-17T10:01:34.561Z,5.75
2018-04-17T10:04:02.036Z,5.62
2018-04-17T10:06:32.060Z,5.20
2018-04-17T10:08:59.597Z,5.15
2018-04-17T10:11:27.796Z,5.32
2018-04-17T10:13:55.248Z,5.45
2018-04-17T10:16:22.719Z,4.47
2018-04-17T10:18:50.956Z,5.95
2018-04-17T10:21:18.616Z,5.03
2018-04-17T10:23:48.921Z,5.95
2018-04-17T10:26:16.509Z,5.97
2018-04-17T10:28:43.986Z,5.50
2018-04-17T10:31:12.229Z,4.85
2018-04-17T10:33:39.676Z,5.68
2018-04-17T10:36:07.171Z,5.68
2018-04-17T10:38:34.662Z,5.20
2018-04-17T10:41:02.126Z,6.32
2018-04-17T10:43:29.978Z,5.07
2018-04-17T10:45:57.475Z,5.12
2018-04-17T10:48:26.181Z,5.90
2018-04-17T10:50:53.648Z,5.25
2018-04-17T10:53:21.137Z,6.30
2018-04-17T10:55:50.249Z,5.75
2018-04-17T10:58:17.774Z,5.78
2018-04-17T11:00:46.009Z,6.25
2018-04-17T11:03:13.480Z,5.70
2018-04-17T11:05:40.960Z,4.85
2018-04-17T11:08:08.427Z,5.55
2018-04-17T11:10:35.913Z,6.35
2018-04-17T11:13:03.394Z,6.40
2018-04-17T11:15:30.864Z,6.40
2018-04-17T11:17:58.352Z,6.18
2018-04-17T11:20:26.581Z,5.40
2018-04-17T11:22:54.053Z,5.80
2018-04-17T11:25:21.517Z,5.65
2018-04-17T11:27:49.776Z,4.75
2018-04-17T11:30:17.265Z,5.50
2018-04-17T11:32:45.504Z,5.03
2018-04-17T11:35:12.976Z,4.62
2018-04-17T11:37:41.349Z,5.37
2018-04-17T11:40:09.033Z,5.40
2018-04-17T11:42:36.501Z,5.18
2018-04-17T11:45:04.757Z,5.55
2018-04-17T11:47:32.228Z,5.60
2018-04-17T11:49:59.755Z,4.85
2018-04-17T11:52:27.229Z,5.15
2018-04-17T11:54:54.720Z,5.10
2018-04-17T11:57:29.481Z,5.22
2018-04-17T11:59:56.943Z,6.10
2018-04-17T12:02:24.416Z,6.60
2018-04-17T12:04:51.889Z,6.22
2018-04-17T12:07:19.359Z,4.97
2018-04-17T12:09:46.850Z,5.68
2018-04-17T12:12:15.352Z,5.57
2018-04-17T12:14:42.889Z,5.87
2018-04-17T12:17:10.304Z,6.17
2018-04-17T12:19:37.771Z,5.33
2018-04-17T12:22:06.058Z,5.80
2018-04-17T12:24:33.532Z,5.25
2018-04-17T12:27:01.010Z,5.37
2018-04-17T12:29:28.480Z,4.90
2018-04-17T12:31:56.020Z,5.15
2018-04-17T12:34:23.488Z,5.73
2018-04-17T12:36:50.949Z,4.90
2018-04-17T12:39:18.442Z,5.00
2018-04-17T12:41:45.900Z,4.60
2018-04-17T12:44:14.128Z,4.20
2018-04-17T12:46:41.601Z,6.00
2018-04-17T12:49:09.086Z,6.40
2018-04-17T12:51:36.553Z,5.63
2018-04-17T12:54:04.784Z,5.10
2018-04-17T12:56:32.233Z,5.37
2018-04-17T12:58:59.723Z,5.30
2018-04-17T13:01:27.204Z,5.70
2018-04-17T13:03:55.431Z,5.20
2018-04-17T13:06:22.930Z,4.23
2018-04-17T13:08:51.181Z,4.90
2018-04-17T13:11:18.663Z,6.53
2018-04-17T13:13:46.118Z,5.50
2018-04-17T13:16:13.570Z,6.13
2018-04-17T13:18:41.025Z,5.20
2018-04-17T13:21:08.488Z,5.20
2018-04-17T13:23:36.724Z,4.63
2018-04-17T13:26:04.184Z,5.40
2018-04-17T13:28:31.640Z,6.00
2018-04-17T13:30:59.134Z,5.50
2018-04-17T13:33:26.594Z,5.07
2018-04-17T13:35:54.048Z,4.03
2018-04-17T13:38:21.513Z,3.70
2018-04-17T13:40:49.728Z,4.47
2018-04-17T13:43:17.981Z,3.63
2018-04-17T13:45:46.183Z,5.03
2018-04-17T13:48:13.653Z,4.97
2018-04-17T13:50:41.114Z,4.80
2018-04-17T13:53:08.609Z,4.87
2018-04-17T13:55:36.829Z,4.77
2018-04-17T13:58:04.304Z,4.53
2018-04-17T14:00:31.756Z,4.00
2018-04-17T14:02:59.225Z,4.60
2018-04-17T14:05:26.697Z,5.10
2018-04-17T14:07:54.153Z,4.57
2018-04-17T14:10:21.626Z,5.00
2018-04-17T14:12:49.901Z,6.03
2018-04-17T14:15:18.128Z,5.27
2018-04-17T14:17:45.597Z,4.50
2018-04-17T14:20:13.077Z,4.70
2018-04-17T14:22:40.538Z,5.70
2018-04-17T14:25:08.769Z,4.23
2018-04-17T14:27:36.239Z,4.33
2018-04-17T14:30:03.707Z,4.23
2018-04-17T14:32:31.164Z,5.07
2018-04-17T14:34:58.646Z,5.70
2018-04-17T14:37:26.119Z,4.47
2018-04-17T14:39:53.583Z,5.60
2018-04-17T14:42:21.067Z,6.20
2018-04-17T14:44:48.532Z,4.87
2018-04-17T14:47:15.985Z,5.20
2018-04-17T14:49:43.505Z,6.00
2018-04-17T14:52:10.948Z,5.10
2018-04-17T14:54:39.214Z,6.33
2018-04-17T14:57:06.681Z,5.37
2018-04-17T14:59:34.140Z,5.50
2018-04-17T15:02:02.368Z,5.90
2018-04-17T15:04:29.875Z,5.77
2018-04-17T15:06:58.102Z,5.20
2018-04-17T15:09:25.600Z,5.13
2018-04-17T15:11:53.056Z,6.17
2018-04-17T15:14:20.522Z,4.93
2018-04-17T15:16:48.756Z,5.93
2018-04-17T15:19:16.225Z,6.00
2018-04-17T15:21:43.687Z,7.50
2018-04-17T15:24:11.158Z,7.80
2018-04-17T15:26:39.375Z,5.63
2018-04-17T15:29:06.848Z,6.20
2018-04-17T15:31:34.311Z,6.87
2018-04-17T15:34:01.760Z,6.97
2018-04-17T15:36:29.231Z,7.43
2018-04-17T15:38:56.694Z,5.33
2018-04-17T15:41:24.195Z,7.20
2018-04-17T15:43:51.648Z,6.83
2018-04-17T15:46:19.132Z,6.30
2018-04-17T15:48:46.597Z,5.00
2018-04-17T15:51:14.053Z,6.10
2018-04-17T15:53:41.522Z,6.23
2018-04-17T15:56:08.979Z,5.90
2018-04-17T15:58:36.424Z,7.57
2018-04-17T16:01:03.884Z,6.03
2018-04-17T16:03:31.360Z,5.60
2018-04-17T16:05:58.816Z,7.13
2018-04-17T16:08:26.290Z,6.10
2018-04-17T16:10:53.757Z,6.80
2018-04-17T16:13:21.994Z,7.17
2018-04-17T16:15:49.448Z,7.60
2018-04-17T16:18:16.920Z,7.90
2018-04-17T16:20:44.395Z,6.80
2018-04-17T16:23:11.845Z,8.50
2018-04-17T16:25:39.310Z,8.70
2018-04-17T16:28:06.806Z,7.07
2018-04-17T16:30:34.272Z,7.90
2018-04-17T16:33:01.759Z,7.10
2018-04-17T16:35:29.294Z,8.20
2018-04-17T16:37:56.768Z,7.63
2018-04-17T16:40:24.237Z,7.77
2018-04-17T16:42:51.704Z,7.10
2018-04-17T16:45:19.164Z,7.40
2018-04-17T16:47:46.651Z,7.73
2018-04-17T16:50:14.117Z,5.87
2018-04-17T16:52:41.614Z,6.77
2018-04-17T16:55:09.082Z,7.70
2018-04-17T16:57:36.556Z,6.33
2018-04-17T17:00:04.021Z,6.73
2018-04-17T17:02:32.278Z,7.93
2018-04-17T17:04:59.743Z,8.40
2018-04-17T17:07:27.238Z,8.03
2018-04-17T17:09:54.705Z,8.50
2018-04-17T17:12:22.163Z,7.80
2018-04-17T17:14:49.630Z,8.33
2018-04-17T17:17:17.089Z,6.40
2018-04-17T17:19:44.556Z,6.60
2018-04-17T17:22:12.032Z,7.60
2018-04-17T17:24:39.501Z,7.57
2018-04-17T17:27:07.041Z,6.20
2018-04-17T17:29:34.479Z,7.40
2018-04-17T17:32:01.954Z,7.97
2018-04-17T17:34:29.404Z,8.43
2018-04-17T17:36:57.121Z,8.60
2018-04-17T17:39:25.372Z,7.83
2018-04-17T17:41:53.600Z,9.40
2018-04-17T17:44:21.084Z,8.80
2018-04-17T17:46:48.563Z,8.60
2018-04-17T17:49:16.029Z,7.70
2018-04-17T17:51:43.737Z,8.30
2018-04-17T17:54:11.446Z,6.50
2018-04-17T17:56:39.001Z,7.50
2018-04-17T17:59:07.342Z,8.20
2018-04-17T18:01:35.075Z,7.78
2018-04-17T18:04:02.639Z,7.60
2018-04-17T18:06:30.340Z,7.90
2018-04-17T18:08:57.957Z,7.40
2018-04-17T18:11:26.985Z,8.93
2018-04-17T18:13:54.703Z,7.45
2018-04-17T18:16:22.404Z,7.75
2018-04-17T18:18:49.981Z,7.87
2018-04-17T18:21:17.680Z,8.15
2018-04-17T18:23:47.629Z,8.30
2018-04-17T18:28:53.850Z,9.13
2018-04-17T18:31:22.111Z,8.20
2018-04-17T18:33:51.517Z,9.18
2018-04-17T18:36:19.107Z,8.80
2018-04-17T18:38:46.590Z,9.05
2018-04-17T18:41:14.180Z,10.30
2018-04-17T18:43:41.760Z,9.13
2018-04-17T18:46:09.528Z,8.27
2018-04-17T18:48:37.207Z,7.80
2018-04-17T18:51:04.817Z,8.93
2018-04-17T18:53:32.346Z,8.15
2018-04-17T18:56:00.078Z,10.85
2018-04-17T18:58:27.620Z,10.20
2018-04-17T19:00:55.143Z,8.30
2018-04-17T19:03:22.622Z,9.25
2018-04-17T19:05:50.223Z,10.60
2018-04-17T19:08:17.848Z,9.20
2018-04-17T19:10:45.352Z,11.82
2018-04-17T19:13:12.844Z,9.93
2018-04-17T19:15:40.354Z,8.95
2018-04-17T19:18:07.873Z,9.45
2018-04-17T19:20:35.399Z,8.20
2018-04-17T19:23:05.438Z,8.40
2018-04-17T19:25:32.965Z,7.80
2018-04-17T19:28:01.242Z,7.65
2018-04-17T19:30:28.737Z,9.05
2018-04-17T19:32:56.374Z,8.65
2018-04-17T19:35:23.860Z,8.15
2018-04-17T19:37:51.330Z,9.00
2018-04-17T19:40:18.926Z,8.15
2018-04-17T19:42:46.447Z,7.55
2018-04-17T19:45:13.945Z,7.75
2018-04-17T19:47:41.649Z,7.93
2018-04-17T19:50:09.203Z,7.82
2018-04-17T19:52:36.716Z,7.65
2018-04-17T19:55:04.299Z,6.65
2018-04-17T19:57:31.835Z,8.00
2018-04-17T19:59:59.394Z,6.97
2018-04-17T20:02:27.018Z,6.50
2018-04-17T20:04:56.524Z,6.65
2018-04-17T20:07:24.196Z,6.15
2018-04-17T20:09:51.838Z,7.60
2018-04-17T20:12:19.345Z,6.78
2018-04-17T20:14:47.585Z,6.28
2018-04-17T20:17:15.113Z,6.40
2018-04-17T20:19:42.654Z,7.78
2018-04-17T20:22:10.152Z,7.37
2018-04-17T20:24:37.636Z,6.45
2018-04-17T20:27:05.108Z,6.70
2018-04-17T20:29:33.387Z,6.20
2018-04-17T20:32:00.953Z,7.35
2018-04-17T20:34:28.556Z,6.87
2018-04-17T20:36:56.048Z,6.45
2018-04-17T20:39:23.519Z,8.00
2018-04-17T20:41:51.801Z,6.93
2018-04-17T20:44:19.359Z,6.60
2018-04-17T20:46:46.907Z,6.87
2018-04-17T20:49:15.238Z,7.07
2018-04-17T20:51:42.772Z,5.68
2018-04-17T20:54:10.249Z,6.55
2018-04-17T20:56:37.817Z,6.03
2018-04-17T20:59:05.329Z,7.03
2018-04-17T21:01:33.911Z,5.87
2018-04-17T21:04:01.372Z,6.43
2018-04-17T21:06:28.870Z,5.80
2018-04-17T21:08:56.341Z,7.30
2018-04-17T21:11:24.077Z,6.22
2018-04-17T21:13:52.374Z,5.95
2018-04-17T21:16:19.866Z,6.35
2018-04-17T21:18:47.448Z,6.32
2018-04-17T21:21:14.947Z,6.40
2018-04-17T21:23:42.426Z,6.10
2018-04-17T21:26:09.894Z,6.40
2018-04-17T21:28:37.381Z,7.25
2018-04-17T21:31:05.161Z,6.32
2018-04-17T21:33:32.631Z,6.60
2018-04-17T21:36:00.161Z,6.85
2018-04-17T21:38:27.592Z,6.07
2018-04-17T21:40:56.064Z,6.05
2018-04-17T21:43:23.613Z,6.40
2018-04-17T21:45:51.239Z,6.90
2018-04-17T21:48:18.707Z,5.97
2018-04-17T21:50:46.207Z,6.78
2018-04-17T21:53:14.489Z,6.35
2018-04-17T21:55:42.717Z,6.30
2018-04-17T21:58:10.225Z,7.35
2018-04-17T22:00:38.118Z,6.72
2018-04-17T22:03:05.596Z,5.90
2018-04-17T22:05:33.193Z,6.72
2018-04-17T22:08:00.683Z,6.70
2018-04-17T22:10:28.489Z,7.15
2018-04-17T22:12:56.000Z,6.55
2018-04-17T22:15:23.446Z,7.15
2018-04-17T22:17:52.122Z,7.07
2018-04-17T22:20:19.628Z,6.12
2018-04-17T22:22:47.132Z,6.78
2018-04-17T22:25:14.753Z,7.75
2018-04-17T22:27:42.236Z,7.37
2018-04-17T22:30:09.710Z,6.32
2018-04-17T22:32:37.962Z,6.80
2018-04-17T22:35:05.449Z,7.40
2018-04-17T22:37:33.706Z,6.30
2018-04-17T22:40:01.185Z,7.18
2018-04-17T22:42:29.444Z,6.30
2018-04-17T22:44:56.920Z,7.28
2018-04-17T22:47:25.182Z,7.05
2018-04-17T22:49:52.695Z,8.15
2018-04-17T22:52:20.194Z,8.02
2018-04-17T22:54:47.677Z,8.20
2018-04-17T22:57:15.154Z,7.85
2018-04-17T22:59:42.647Z,8.30
2018-04-17T23:02:10.131Z,7.65
2018-04-17T23:04:37.597Z,7.80
2018-04-17T23:07:05.095Z,7.28
2018-04-17T23:09:32.569Z,8.25
2018-04-17T23:12:00.061Z,8.50
2018-04-17T23:14:27.535Z,7.80
2018-04-17T23:16:55.778Z,8.30
2018-04-17T23:19:23.216Z,8.85
2018-04-17T23:21:50.672Z,7.68
2018-04-17T23:24:18.125Z,7.82
2018-04-17T23:26:45.997Z,9.07
2018-04-17T23:29:13.455Z,9.27
2018-04-17T23:31:40.944Z,8.77
2018-04-17T23:34:09.171Z,9.05
2018-04-17T23:36:36.639Z,7.62
2018-04-17T23:39:04.100Z,9.60
2018-04-17T23:41:31.589Z,9.90
2018-04-17T23:43:59.111Z,8.90
2018-04-17T23:46:26.614Z,9.20
2018-04-17T23:48:54.861Z,8.32
2018-04-17T23:51:22.333Z,9.15
2018-04-17T23:53:49.791Z,8.80
2018-04-17T23:56:17.259Z,9.38
2018-04-17T23:58:45.482Z,8.23
